Acton, Texas
Current Conditions -  °F | °C
As of 1:15 AM on Saturday 29 Nov 2014 (Local Time) from KGDJ Reporting Station
Clear Clear  
Wind Chill: 57°   Ceiling: Unl
Heat Index: 57°   Visibility: 10mi
Dew Point: 47°   Wind: 3mph
Humidity: 68%   Direction: 160°SSE
Pressure: 29.99"   Gusts: NA
Location:  32.4693°N, 97.7085°W
Report Text: KGDJ 290715Z AUTO 16003KT 10SM CLR 14/08 A2999 RMK AO2 T01410082
Loading
Personal Weather Stations






























Interactive Weather Map New forecast layout! Learn more

10-Day Weather Forecast

Advertisements
Track Severe Weather on mobile